createdAt,value
2017-10-25T00:02:20.786Z,14.80
2017-10-25T00:04:48.310Z,14.80
2017-10-25T00:07:15.813Z,14.80
2017-10-25T00:09:44.119Z,14.80
2017-10-25T00:12:11.648Z,14.80
2017-10-25T00:14:39.915Z,14.80
2017-10-25T00:17:08.231Z,14.80
2017-10-25T00:19:35.716Z,14.80
2017-10-25T00:22:03.341Z,14.80
2017-10-25T00:24:30.897Z,14.80
2017-10-25T00:26:58.409Z,14.70
2017-10-25T00:29:25.925Z,14.70
2017-10-25T00:31:53.417Z,14.70
2017-10-25T00:34:20.943Z,14.60
2017-10-25T00:36:48.444Z,14.60
2017-10-25T00:39:16.761Z,14.50
2017-10-25T00:41:44.256Z,14.50
2017-10-25T00:44:11.762Z,14.50
2017-10-25T00:46:40.040Z,14.50
2017-10-25T00:49:07.607Z,14.50
2017-10-25T00:51:35.177Z,14.50
2017-10-25T00:54:02.682Z,14.50
2017-10-25T00:56:30.195Z,14.50
2017-10-25T00:58:57.692Z,14.50
2017-10-25T01:01:26.008Z,14.50
2017-10-25T01:03:53.528Z,14.50
2017-10-25T01:06:21.032Z,14.50
2017-10-25T01:08:48.592Z,14.50
2017-10-25T01:11:16.115Z,14.50
2017-10-25T01:13:43.691Z,14.40
2017-10-25T01:16:11.269Z,14.40
2017-10-25T01:18:38.821Z,14.40
2017-10-25T01:21:06.309Z,14.40
2017-10-25T01:23:33.876Z,14.30
2017-10-25T01:26:01.404Z,14.30
2017-10-25T01:28:28.962Z,14.30
2017-10-25T01:30:56.488Z,14.30
2017-10-25T01:33:24.744Z,14.20
2017-10-25T01:35:53.481Z,14.30
2017-10-25T01:38:21.029Z,14.20
2017-10-25T01:40:48.681Z,14.20
2017-10-25T01:43:16.168Z,14.20
2017-10-25T01:45:43.657Z,14.20
2017-10-25T01:48:11.251Z,14.20
2017-10-25T01:50:39.519Z,14.10
2017-10-25T01:53:07.014Z,14.10
2017-10-25T01:55:34.536Z,14.10
2017-10-25T01:58:02.081Z,14.20
2017-10-25T02:00:30.363Z,14.20
2017-10-25T02:02:58.676Z,14.20
2017-10-25T02:05:26.190Z,14.20
2017-10-25T02:07:53.685Z,14.20
2017-10-25T02:10:21.522Z,14.20
2017-10-25T02:12:49.792Z,14.20
2017-10-25T02:15:18.057Z,14.30
2017-10-25T02:17:46.360Z,14.20
2017-10-25T02:20:13.848Z,14.20
2017-10-25T02:22:41.376Z,14.30
2017-10-25T02:25:08.945Z,14.30
2017-10-25T02:27:36.446Z,14.30
2017-10-25T02:30:03.965Z,14.30
2017-10-25T02:32:31.465Z,14.40
2017-10-25T02:35:00.465Z,14.30
2017-10-25T02:37:27.977Z,14.30
2017-10-25T02:39:55.519Z,14.40
2017-10-25T02:42:23.050Z,14.40
2017-10-25T02:44:51.308Z,14.30
2017-10-25T02:47:20.309Z,14.30
2017-10-25T02:49:47.836Z,14.30
2017-10-25T02:52:15.425Z,14.40
2017-10-25T02:54:43.693Z,14.40
2017-10-25T02:57:11.196Z,14.40
2017-10-25T02:59:38.722Z,14.40
2017-10-25T03:02:06.221Z,14.40
2017-10-25T03:04:33.744Z,14.30
2017-10-25T03:07:02.005Z,14.30
2017-10-25T03:09:29.604Z,14.30
2017-10-25T03:11:57.154Z,14.40
2017-10-25T03:14:24.664Z,14.40
2017-10-25T03:16:52.271Z,14.40
2017-10-25T03:19:19.769Z,14.40
2017-10-25T03:21:47.287Z,14.40
2017-10-25T03:24:14.785Z,14.40
2017-10-25T03:26:42.331Z,14.40
2017-10-25T03:29:09.840Z,14.50
2017-10-25T03:31:38.101Z,14.50
2017-10-25T03:34:06.412Z,14.40
2017-10-25T03:36:33.905Z,14.40
2017-10-25T03:39:01.423Z,14.40
2017-10-25T03:41:28.912Z,14.40
2017-10-25T03:43:56.461Z,14.40
2017-10-25T03:46:23.963Z,14.40
2017-10-25T03:48:51.453Z,14.40
2017-10-25T03:51:19.020Z,14.40
2017-10-25T03:53:46.561Z,14.40
2017-10-25T03:56:14.818Z,14.40
2017-10-25T03:58:42.399Z,14.40
2017-10-25T04:01:09.966Z,14.50
2017-10-25T04:03:37.470Z,14.50
2017-10-25T04:06:04.999Z,14.50
2017-10-25T04:08:33.048Z,14.50
2017-10-25T04:11:00.593Z,14.50
2017-10-25T04:13:28.862Z,14.60
2017-10-25T04:15:57.113Z,14.60
2017-10-25T04:18:24.670Z,14.60
2017-10-25T04:20:52.933Z,14.50
2017-10-25T04:23:20.482Z,14.50
2017-10-25T04:25:47.972Z,14.40
2017-10-25T04:28:15.478Z,14.40
2017-10-25T04:30:42.964Z,14.40
2017-10-25T04:33:10.501Z,14.40
2017-10-25T04:35:38.021Z,14.40
2017-10-25T04:38:06.291Z,14.30
2017-10-25T04:40:34.594Z,14.30
2017-10-25T04:43:02.101Z,14.30
2017-10-25T04:45:29.597Z,14.30
2017-10-25T04:47:57.133Z,14.30
2017-10-25T04:50:25.380Z,14.30
2017-10-25T04:52:52.897Z,14.20
2017-10-25T04:55:20.443Z,14.30
2017-10-25T04:57:47.978Z,14.30
2017-10-25T05:00:16.346Z,14.20
2017-10-25T05:02:45.344Z,14.20
2017-10-25T05:05:12.881Z,14.20
2017-10-25T05:07:40.368Z,14.20
2017-10-25T05:10:08.656Z,14.10
2017-10-25T05:12:36.919Z,14.10
2017-10-25T05:15:05.213Z,14.10
2017-10-25T05:17:33.596Z,14.20
2017-10-25T05:20:01.169Z,14.20
2017-10-25T05:22:28.691Z,14.20
2017-10-25T05:24:56.949Z,14.10
2017-10-25T05:27:24.476Z,14.10
2017-10-25T05:29:51.972Z,14.20
2017-10-25T05:32:19.569Z,14.10
2017-10-25T05:34:47.084Z,14.10
2017-10-25T05:37:14.603Z,14.10
2017-10-25T05:39:42.153Z,14.10
2017-10-25T05:42:09.648Z,14.10
2017-10-25T05:44:37.173Z,14.00
2017-10-25T05:47:04.674Z,14.00
2017-10-25T05:49:32.943Z,13.90
2017-10-25T05:52:00.472Z,13.80
2017-10-25T05:54:27.966Z,13.80
2017-10-25T05:56:56.254Z,13.70
2017-10-25T05:59:24.514Z,13.70
2017-10-25T06:01:52.036Z,13.70
2017-10-25T06:04:19.546Z,13.60
2017-10-25T06:06:47.833Z,13.50
2017-10-25T06:09:15.329Z,13.50
2017-10-25T06:11:42.854Z,13.50
2017-10-25T06:14:10.347Z,13.50
2017-10-25T06:16:37.865Z,13.50
2017-10-25T06:19:05.383Z,13.50
2017-10-25T06:21:32.881Z,13.50
2017-10-25T06:24:00.418Z,13.50
2017-10-25T06:26:28.674Z,13.50
2017-10-25T06:28:56.169Z,13.50
2017-10-25T06:31:23.678Z,13.50
2017-10-25T06:33:51.288Z,13.50
2017-10-25T06:36:18.799Z,13.40
2017-10-25T06:38:46.305Z,13.50
2017-10-25T06:41:13.852Z,13.40
2017-10-25T06:43:41.352Z,13.40
2017-10-25T06:46:08.867Z,13.40
2017-10-25T06:48:36.377Z,13.50
2017-10-25T06:51:03.883Z,13.40
2017-10-25T06:53:31.409Z,13.40
2017-10-25T06:55:59.681Z,13.40
2017-10-25T06:58:27.199Z,13.40
2017-10-25T07:00:54.701Z,13.40
2017-10-25T07:03:22.999Z,13.50
2017-10-25T07:05:50.534Z,13.50
2017-10-25T07:08:18.809Z,13.50
2017-10-25T07:10:47.091Z,13.50
2017-10-25T07:13:14.592Z,13.50
2017-10-25T07:15:42.133Z,13.50
2017-10-25T07:18:09.620Z,13.50
2017-10-25T07:20:37.115Z,13.50
2017-10-25T07:23:06.147Z,13.50
2017-10-25T07:25:33.661Z,13.50
2017-10-25T07:28:01.197Z,13.50
2017-10-25T07:30:28.730Z,13.50
2017-10-25T07:32:56.220Z,13.50
2017-10-25T07:35:23.836Z,13.50
2017-10-25T07:37:51.330Z,13.50
2017-10-25T07:40:19.267Z,13.60
2017-10-25T07:42:46.798Z,13.70
2017-10-25T07:45:15.063Z,13.80
2017-10-25T07:47:43.473Z,13.80
2017-10-25T07:50:10.963Z,13.80
2017-10-25T07:52:38.528Z,13.90
2017-10-25T07:55:06.029Z,14.00
2017-10-25T07:57:34.296Z,14.10
2017-10-25T08:00:02.580Z,14.20
2017-10-25T08:02:30.838Z,14.20
2017-10-25T08:04:59.160Z,14.30
2017-10-25T08:07:26.666Z,14.30
2017-10-25T08:09:54.179Z,14.40
2017-10-25T08:12:21.684Z,14.40
2017-10-25T08:14:50.090Z,14.40
2017-10-25T08:17:17.605Z,14.50
2017-10-25T08:19:45.862Z,14.50
2017-10-25T08:22:13.392Z,14.50
2017-10-25T08:24:40.892Z,14.60
2017-10-25T08:27:08.411Z,14.60
2017-10-25T08:29:35.965Z,14.70
2017-10-25T08:32:03.529Z,14.80
2017-10-25T08:34:31.044Z,14.80
2017-10-25T08:36:59.342Z,14.90
2017-10-25T08:39:27.203Z,14.90
2017-10-25T08:41:55.465Z,15.00
2017-10-25T08:44:23.716Z,15.00
2017-10-25T08:46:51.254Z,15.00
2017-10-25T08:49:18.755Z,15.10
2017-10-25T08:51:47.045Z,15.00
2017-10-25T08:54:14.547Z,15.00
2017-10-25T08:56:42.095Z,15.00
2017-10-25T08:59:09.636Z,15.00
2017-10-25T09:01:37.129Z,15.10
2017-10-25T09:04:04.658Z,15.10
2017-10-25T09:06:32.215Z,15.10
2017-10-25T09:08:59.737Z,15.10
2017-10-25T09:11:27.996Z,15.10
2017-10-25T09:13:55.524Z,15.10
2017-10-25T09:16:23.030Z,15.10
2017-10-25T09:18:51.307Z,15.20
2017-10-25T09:21:19.596Z,15.30
2017-10-25T09:23:48.012Z,15.20
2017-10-25T09:26:15.515Z,15.40
2017-10-25T09:28:43.790Z,15.50
2017-10-25T09:31:12.089Z,15.50
2017-10-25T09:33:39.612Z,15.50
2017-10-25T09:36:07.123Z,15.60
2017-10-25T09:38:34.659Z,15.70
2017-10-25T09:41:02.166Z,15.70
2017-10-25T09:43:29.762Z,15.80
2017-10-25T09:45:57.331Z,15.90
2017-10-25T09:48:24.824Z,15.90
2017-10-25T09:50:52.854Z,16.10
2017-10-25T09:53:20.428Z,16.30
2017-10-25T09:55:47.951Z,16.50
2017-10-25T09:58:16.231Z,16.70
2017-10-25T10:00:44.494Z,16.70
2017-10-25T10:03:12.894Z,16.70
2017-10-25T10:05:40.409Z,16.70
2017-10-25T10:08:08.037Z,16.70
2017-10-25T10:10:35.552Z,16.70
2017-10-25T10:13:03.873Z,16.90
2017-10-25T10:15:31.399Z,16.90
2017-10-25T10:17:59.665Z,17.10
2017-10-25T10:20:27.935Z,17.20
2017-10-25T10:22:55.547Z,17.20
2017-10-25T10:25:23.097Z,17.50
2017-10-25T10:27:50.609Z,17.70
2017-10-25T10:30:18.884Z,18.10
2017-10-25T10:32:46.433Z,18.10
2017-10-25T10:35:13.928Z,18.20
2017-10-25T10:37:41.420Z,18.20
2017-10-25T10:40:08.948Z,18.40
2017-10-25T10:42:36.468Z,18.60
2017-10-25T10:45:04.060Z,18.90
2017-10-25T10:47:31.551Z,19.00
2017-10-25T10:49:59.082Z,19.30
2017-10-25T10:52:26.654Z,19.50
2017-10-25T10:54:54.178Z,19.70
2017-10-25T10:57:22.452Z,20.20
2017-10-25T10:59:49.985Z,20.10
2017-10-25T11:02:17.482Z,20.50
2017-10-25T11:04:44.974Z,20.80
2017-10-25T11:07:12.893Z,21.20
2017-10-25T11:09:41.154Z,21.80
2017-10-25T11:12:09.421Z,21.90
2017-10-25T11:14:36.942Z,21.90
2017-10-25T11:17:04.472Z,22.20
2017-10-25T11:19:32.038Z,22.30
2017-10-25T11:21:59.566Z,22.30
2017-10-25T11:24:27.858Z,22.50
2017-10-25T11:26:55.415Z,22.50
2017-10-25T11:29:22.960Z,22.70
2017-10-25T11:31:51.229Z,23.40
2017-10-25T11:34:19.491Z,23.70
2017-10-25T11:36:47.012Z,23.60
2017-10-25T11:39:14.520Z,23.90
2017-10-25T11:41:42.800Z,24.40
2017-10-25T11:44:11.085Z,24.70
2017-10-25T11:46:38.633Z,24.70
2017-10-25T11:49:06.903Z,25.00
2017-10-25T11:51:35.158Z,25.30
2017-10-25T11:54:02.770Z,25.20
2017-10-25T11:56:30.266Z,25.50
2017-10-25T11:58:57.809Z,25.50
2017-10-25T12:01:25.317Z,25.70
2017-10-25T12:03:53.612Z,25.80
2017-10-25T12:06:21.141Z,25.80
2017-10-25T12:08:49.045Z,25.80
2017-10-25T12:11:16.546Z,25.90
2017-10-25T12:13:44.067Z,26.20
2017-10-25T12:16:11.594Z,26.40
2017-10-25T12:18:39.870Z,26.80
2017-10-25T12:21:08.205Z,27.00
2017-10-25T12:23:35.696Z,26.90
2017-10-25T12:26:04.098Z,27.30
2017-10-25T12:28:31.616Z,27.30
2017-10-25T12:30:59.137Z,27.40
2017-10-25T12:33:26.657Z,27.70
2017-10-25T12:35:54.937Z,28.20
2017-10-25T12:38:22.514Z,28.10
2017-10-25T12:40:49.996Z,28.40
2017-10-25T12:43:17.517Z,28.60
2017-10-25T12:45:45.013Z,28.50
2017-10-25T12:48:12.532Z,28.60
2017-10-25T12:50:40.030Z,29.00
2017-10-25T12:53:07.529Z,29.40
2017-10-25T12:55:35.806Z,30.30
2017-10-25T12:58:04.080Z,30.70
2017-10-25T13:00:32.372Z,31.10
2017-10-25T13:02:59.891Z,31.00
2017-10-25T13:05:27.417Z,31.40
2017-10-25T13:07:55.000Z,31.70
2017-10-25T13:10:26.732Z,31.90
2017-10-25T13:12:56.846Z,32.10
2017-10-25T13:15:51.526Z,32.20
2017-10-25T13:18:19.956Z,32.10
2017-10-25T13:20:47.457Z,32.10
2017-10-25T13:23:14.988Z,32.00
2017-10-25T13:25:43.274Z,31.70
2017-10-25T13:28:10.790Z,31.70
2017-10-25T13:30:38.396Z,31.40
2017-10-25T13:33:05.893Z,31.50
2017-10-25T13:35:33.409Z,31.80
2017-10-25T13:38:00.925Z,32.10
2017-10-25T13:40:28.461Z,32.30
2017-10-25T13:42:55.991Z,32.40
2017-10-25T13:45:23.498Z,32.10
2017-10-25T13:47:51.017Z,31.90
2017-10-25T13:50:18.527Z,31.40
2017-10-25T13:52:46.044Z,30.80
2017-10-25T13:55:13.558Z,30.00
2017-10-25T13:57:41.858Z,28.70
2017-10-25T14:00:09.354Z,28.70
2017-10-25T14:02:36.852Z,28.20
2017-10-25T14:05:05.141Z,27.40
2017-10-25T14:07:32.683Z,27.30
2017-10-25T14:10:00.994Z,26.80
2017-10-25T14:12:28.504Z,26.80
2017-10-25T14:14:56.805Z,26.30
2017-10-25T14:17:24.343Z,26.30
2017-10-25T14:19:52.636Z,25.80
2017-10-25T14:22:20.129Z,25.80
2017-10-25T14:24:47.656Z,25.60
2017-10-25T14:27:27.255Z,25.40
2017-10-25T14:29:54.782Z,25.20
2017-10-25T14:32:22.286Z,25.00
2017-10-25T14:34:50.606Z,24.70
2017-10-25T14:37:18.117Z,24.70
2017-10-25T14:39:46.387Z,24.40
2017-10-25T14:42:13.910Z,24.40
2017-10-25T14:44:41.403Z,24.30
2017-10-25T14:47:08.936Z,24.20
2017-10-25T14:49:36.437Z,24.10
2017-10-25T14:52:05.594Z,23.90
2017-10-25T14:54:33.123Z,23.90
2017-10-25T14:57:00.652Z,23.80
2017-10-25T14:59:28.232Z,23.70
2017-10-25T15:01:55.778Z,23.60
2017-10-25T15:04:23.309Z,23.50
2017-10-25T15:06:50.849Z,23.30
2017-10-25T15:09:19.879Z,23.20
2017-10-25T15:11:48.147Z,23.10
2017-10-25T15:14:16.428Z,23.10
2017-10-25T15:16:44.700Z,23.00
2017-10-25T15:19:13.088Z,22.90
2017-10-25T15:21:40.668Z,22.90
2017-10-25T15:24:08.157Z,22.80
2017-10-25T15:26:35.666Z,22.70
2017-10-25T15:29:03.191Z,22.70
2017-10-25T15:31:30.793Z,22.60
2017-10-25T15:33:58.318Z,22.50
2017-10-25T15:36:25.881Z,22.40
2017-10-25T15:38:54.153Z,22.20
2017-10-25T15:41:22.628Z,22.10
2017-10-25T15:43:50.965Z,22.10
2017-10-25T15:46:18.457Z,22.00
2017-10-25T15:48:46.769Z,21.90
2017-10-25T15:51:14.352Z,21.90
2017-10-25T15:53:41.887Z,21.80
2017-10-25T15:56:09.451Z,21.70
2017-10-25T15:58:36.984Z,21.50
2017-10-25T16:01:05.257Z,21.20
2017-10-25T16:03:33.530Z,21.20
2017-10-25T16:06:01.827Z,21.10
2017-10-25T16:08:29.329Z,21.10
2017-10-25T16:10:56.859Z,21.00
2017-10-25T16:13:24.357Z,20.90
2017-10-25T16:15:51.940Z,20.80
2017-10-25T16:18:20.210Z,20.60
2017-10-25T16:20:48.533Z,20.50
2017-10-25T16:23:16.046Z,20.50
2017-10-25T16:25:44.408Z,20.40
2017-10-25T16:28:12.701Z,20.40
2017-10-25T16:30:41.008Z,20.30
2017-10-25T16:33:08.543Z,20.30
2017-10-25T16:35:36.037Z,20.30
2017-10-25T16:38:03.592Z,20.30
2017-10-25T16:40:31.094Z,20.20
2017-10-25T16:42:59.362Z,20.10
2017-10-25T16:45:26.880Z,20.10
2017-10-25T16:47:54.377Z,20.10
2017-10-25T16:50:21.907Z,20.00
2017-10-25T16:52:49.416Z,20.00
2017-10-25T16:55:17.001Z,19.90
2017-10-25T16:57:44.537Z,19.80
2017-10-25T17:00:12.041Z,19.70
2017-10-25T17:02:39.574Z,19.70
2017-10-25T17:05:07.093Z,19.60
2017-10-25T17:07:35.400Z,19.40
2017-10-25T17:10:02.933Z,19.40
2017-10-25T17:12:31.218Z,19.20
2017-10-25T17:14:58.753Z,19.20
2017-10-25T17:17:27.029Z,19.00
2017-10-25T17:19:55.312Z,19.00
2017-10-25T17:22:23.618Z,18.90
2017-10-25T17:24:51.111Z,18.90
2017-10-25T17:27:18.633Z,18.90
2017-10-25T17:29:46.127Z,18.90
2017-10-25T17:32:13.657Z,18.90
2017-10-25T17:34:41.176Z,18.90
2017-10-25T17:37:09.492Z,18.80
2017-10-25T17:39:37.041Z,18.80
2017-10-25T17:42:04.553Z,18.80
2017-10-25T17:44:32.894Z,18.70
2017-10-25T17:47:00.391Z,18.60
2017-10-25T17:49:27.910Z,18.60
2017-10-25T17:51:55.442Z,18.60
2017-10-25T17:54:22.959Z,18.50
2017-10-25T17:56:51.256Z,18.50
2017-10-25T17:59:19.540Z,18.40
2017-10-25T18:01:47.087Z,18.40
2017-10-25T18:04:15.364Z,18.30
2017-10-25T18:06:43.638Z,18.30
2017-10-25T18:09:11.947Z,18.30
2017-10-25T18:11:39.445Z,18.20
2017-10-25T18:14:07.871Z,18.30
2017-10-25T18:16:35.401Z,18.30
2017-10-25T18:19:02.949Z,18.20
2017-10-25T18:21:31.246Z,18.20
2017-10-25T18:23:59.527Z,18.10
2017-10-25T18:26:27.074Z,18.10
2017-10-25T18:28:55.353Z,18.00
2017-10-25T18:31:23.641Z,18.00
2017-10-25T18:33:51.217Z,17.90
2017-10-25T18:36:18.721Z,17.90
2017-10-25T18:38:46.262Z,17.90
2017-10-25T18:41:13.779Z,17.90
2017-10-25T18:43:41.330Z,17.90
2017-10-25T18:46:08.834Z,17.90
2017-10-25T18:48:36.469Z,17.90
2017-10-25T18:51:03.998Z,17.90
2017-10-25T18:53:32.273Z,17.80
2017-10-25T18:56:00.591Z,17.70
2017-10-25T18:58:28.097Z,17.70
2017-10-25T19:00:56.408Z,17.60
2017-10-25T19:03:23.918Z,17.60
2017-10-25T19:05:51.464Z,17.60
2017-10-25T19:08:18.993Z,17.50
2017-10-25T19:10:46.526Z,17.40
2017-10-25T19:13:14.090Z,17.40
2017-10-25T19:15:41.609Z,17.30
2017-10-25T19:18:09.937Z,17.20
2017-10-25T19:20:37.456Z,17.20
2017-10-25T19:23:05.796Z,17.10
2017-10-25T19:25:33.290Z,17.10
2017-10-25T19:28:01.573Z,17.00
2017-10-25T19:30:29.127Z,17.00
2017-10-25T19:32:57.428Z,17.00
2017-10-25T19:35:24.975Z,17.00
2017-10-25T19:37:52.486Z,17.00
2017-10-25T19:40:20.058Z,16.90
2017-10-25T19:42:47.629Z,17.00
2017-10-25T19:45:15.162Z,17.00
2017-10-25T19:47:42.736Z,17.00
2017-10-25T19:50:10.265Z,17.00
2017-10-25T19:52:38.199Z,17.00
2017-10-25T19:55:05.733Z,17.00
2017-10-25T19:57:34.024Z,17.00
2017-10-25T20:00:01.592Z,17.00
2017-10-25T20:02:29.109Z,17.00
2017-10-25T20:04:57.414Z,17.00
2017-10-25T20:07:24.929Z,16.90
2017-10-25T20:09:52.438Z,17.00
2017-10-25T20:12:19.986Z,16.90
2017-10-25T20:14:47.472Z,17.00
2017-10-25T20:17:15.005Z,17.00
2017-10-25T20:19:42.533Z,17.00
2017-10-25T20:22:10.071Z,17.00
2017-10-25T20:24:37.681Z,17.00
2017-10-25T20:27:05.194Z,17.00
2017-10-25T20:29:32.756Z,17.00
2017-10-25T20:32:00.264Z,17.00
2017-10-25T20:34:27.784Z,16.90
2017-10-25T20:36:56.090Z,17.00
2017-10-25T20:39:23.627Z,16.90
2017-10-25T20:41:51.945Z,16.90
2017-10-25T20:44:19.488Z,16.90
2017-10-25T20:46:46.999Z,16.90
2017-10-25T20:49:14.493Z,16.90
2017-10-25T20:51:42.133Z,16.80
2017-10-25T20:54:10.444Z,16.80
2017-10-25T20:56:37.947Z,16.80
2017-10-25T20:59:05.481Z,16.80
2017-10-25T21:01:33.039Z,16.80
2017-10-25T21:04:00.554Z,16.90
2017-10-25T21:06:28.072Z,16.90
2017-10-25T21:08:55.642Z,16.90
2017-10-25T21:11:23.149Z,16.90
2017-10-25T21:13:50.718Z,16.90
2017-10-25T21:16:18.231Z,16.90
2017-10-25T21:18:46.496Z,16.90
2017-10-25T21:21:14.040Z,16.90
2017-10-25T21:23:42.325Z,16.90
2017-10-25T21:26:09.852Z,16.90
2017-10-25T21:28:37.362Z,16.90
2017-10-25T21:31:05.653Z,16.90
2017-10-25T21:33:33.176Z,16.90
2017-10-25T21:36:00.664Z,16.90
2017-10-25T21:38:28.204Z,16.90
2017-10-25T21:40:56.469Z,16.90
2017-10-25T21:43:24.780Z,16.90
2017-10-25T21:45:52.300Z,16.90
2017-10-25T21:48:19.802Z,17.00
2017-10-25T21:50:47.328Z,17.00
2017-10-25T21:53:15.597Z,17.00
2017-10-25T21:55:43.888Z,16.90
2017-10-25T21:58:12.159Z,16.90
2017-10-25T22:00:40.455Z,16.90
2017-10-25T22:03:07.965Z,16.90
2017-10-25T22:05:35.505Z,17.00
2017-10-25T22:08:02.998Z,16.90
2017-10-25T22:10:31.273Z,16.90
2017-10-25T22:12:59.556Z,16.90
2017-10-25T22:15:27.836Z,16.90
2017-10-25T22:17:55.347Z,16.90
2017-10-25T22:20:22.885Z,16.90
2017-10-25T22:22:50.380Z,16.90
2017-10-25T22:25:17.878Z,16.80
2017-10-25T22:27:45.405Z,16.90
2017-10-25T22:30:13.669Z,16.90
2017-10-25T22:32:41.205Z,16.90
2017-10-25T22:35:08.694Z,16.90
2017-10-25T22:37:36.184Z,16.90
2017-10-25T22:40:03.733Z,16.90
2017-10-25T22:42:31.251Z,16.90
2017-10-25T22:44:59.564Z,17.00
2017-10-25T22:47:27.852Z,17.00
2017-10-25T22:49:55.364Z,17.00
2017-10-25T22:52:22.871Z,17.00
2017-10-25T22:54:50.393Z,17.00
2017-10-25T22:57:18.674Z,17.00
2017-10-25T22:59:46.969Z,17.00
2017-10-25T23:02:14.489Z,17.00
2017-10-25T23:04:41.995Z,17.00
2017-10-25T23:07:09.528Z,17.00
2017-10-25T23:09:37.802Z,17.00
2017-10-25T23:12:06.064Z,16.90
2017-10-25T23:14:34.388Z,17.00
2017-10-25T23:17:01.897Z,16.90
2017-10-25T23:19:30.199Z,17.00
2017-10-25T23:21:57.688Z,16.90
2017-10-25T23:24:25.221Z,16.90
2017-10-25T23:26:52.773Z,16.90
2017-10-25T23:29:20.329Z,17.00
2017-10-25T23:31:47.824Z,17.00
2017-10-25T23:34:15.321Z,17.00
2017-10-25T23:36:43.608Z,17.00
2017-10-25T23:39:11.896Z,17.00
2017-10-25T23:41:39.408Z,17.00
2017-10-25T23:44:06.896Z,17.00
2017-10-25T23:46:35.204Z,16.90
2017-10-25T23:49:02.701Z,16.90
2017-10-25T23:51:30.205Z,16.90
2017-10-25T23:53:57.729Z,16.90
2017-10-25T23:56:25.228Z,16.90
2017-10-25T23:58:52.748Z,16.90
